createdAt,value
2018-12-26T00:00:39.110Z,85.71
2018-12-26T00:01:39.166Z,85.29
2018-12-26T00:02:39.102Z,85.91
2018-12-26T00:03:39.078Z,85.81
2018-12-26T00:04:39.062Z,85.71
2018-12-26T00:05:39.134Z,85.91
2018-12-26T00:06:39.036Z,85.60
2018-12-26T00:07:39.048Z,84.66
2018-12-26T00:08:39.038Z,84.45
2018-12-26T00:09:39.107Z,84.66
2018-12-26T00:10:39.000Z,84.45
2018-12-26T00:11:38.997Z,84.56
2018-12-26T00:12:38.974Z,84.97
2018-12-26T00:13:38.986Z,85.18
2018-12-26T00:14:38.951Z,85.29
2018-12-26T00:15:38.945Z,85.39
2018-12-26T00:16:38.927Z,86.13
2018-12-26T00:17:38.916Z,86.23
2018-12-26T00:18:38.962Z,86.23
2018-12-26T00:19:38.971Z,86.02
2018-12-26T00:20:38.885Z,86.69
2018-12-26T00:21:38.875Z,86.79
2018-12-26T00:22:38.867Z,85.85
2018-12-26T00:23:38.875Z,86.23
2018-12-26T00:24:38.839Z,85.01
2018-12-26T00:25:38.842Z,85.22
2018-12-26T00:26:38.819Z,85.53
2018-12-26T00:27:38.818Z,86.20
2018-12-26T00:28:38.820Z,85.85
2018-12-26T00:29:38.795Z,85.99
2018-12-26T00:30:38.772Z,85.47
2018-12-26T00:31:38.762Z,85.78
2018-12-26T00:32:38.762Z,86.20
2018-12-26T00:33:38.779Z,85.78
2018-12-26T00:34:38.731Z,86.20
2018-12-26T00:35:38.722Z,86.10
2018-12-26T00:36:38.706Z,86.20
2018-12-26T00:37:38.698Z,86.52
2018-12-26T00:38:38.685Z,86.52
2018-12-26T00:39:38.699Z,87.25
2018-12-26T00:40:38.662Z,87.15
2018-12-26T00:41:38.653Z,86.10
2018-12-26T00:42:38.644Z,85.99
2018-12-26T00:43:38.639Z,86.10
2018-12-26T00:44:38.642Z,85.89
2018-12-26T00:45:38.611Z,86.87
2018-12-26T00:46:38.599Z,86.72
2018-12-26T00:47:38.586Z,86.93
2018-12-26T00:48:38.576Z,86.72
2018-12-26T00:49:38.586Z,86.62
2018-12-26T00:50:38.560Z,86.10
2018-12-26T00:51:38.547Z,86.20
2018-12-26T00:52:38.534Z,85.89
2018-12-26T00:53:38.521Z,86.31
2018-12-26T00:54:38.532Z,85.89
2018-12-26T00:55:38.503Z,86.20
2018-12-26T00:56:38.491Z,86.52
2018-12-26T00:57:38.477Z,86.83
2018-12-26T00:58:38.468Z,86.72
2018-12-26T00:59:38.478Z,86.93
2018-12-26T01:00:38.445Z,85.99
2018-12-26T01:01:38.434Z,86.52
2018-12-26T01:02:38.424Z,87.25
2018-12-26T01:03:38.411Z,87.25
2018-12-26T01:04:38.441Z,87.15
2018-12-26T01:05:38.388Z,87.31
2018-12-26T01:06:38.377Z,86.90
2018-12-26T01:07:38.367Z,86.27
2018-12-26T01:08:38.367Z,85.74
2018-12-26T01:09:38.352Z,84.95
2018-12-26T01:10:38.356Z,85.05
2018-12-26T01:11:38.326Z,85.68
2018-12-26T01:12:38.315Z,86.20
2018-12-26T01:13:38.302Z,86.31
2018-12-26T01:14:38.301Z,86.10
2018-12-26T01:15:38.305Z,86.10
2018-12-26T01:16:38.270Z,86.72
2018-12-26T01:17:38.259Z,87.04
2018-12-26T01:18:38.246Z,86.93
2018-12-26T01:19:38.240Z,86.72
2018-12-26T01:20:38.248Z,86.62
2018-12-26T01:21:38.231Z,87.56
2018-12-26T01:22:38.202Z,87.66
2018-12-26T01:23:38.193Z,87.04
2018-12-26T01:24:38.184Z,86.72
2018-12-26T01:25:38.192Z,86.47
2018-12-26T01:26:38.164Z,86.41
2018-12-26T01:27:38.150Z,85.89
2018-12-26T01:28:38.137Z,85.89
2018-12-26T01:29:38.125Z,86.62
2018-12-26T01:30:38.245Z,86.52
2018-12-26T01:31:38.112Z,87.35
2018-12-26T01:32:38.095Z,87.15
2018-12-26T01:33:38.087Z,87.35
2018-12-26T01:34:38.075Z,87.46
2018-12-26T01:35:38.097Z,87.56
2018-12-26T01:36:38.054Z,87.98
2018-12-26T01:37:38.046Z,87.15
2018-12-26T01:38:38.026Z,87.35
2018-12-26T01:39:38.021Z,87.35
2018-12-26T01:40:38.005Z,87.46
2018-12-26T01:41:38.017Z,86.83
2018-12-26T01:42:37.984Z,86.55
2018-12-26T01:43:37.972Z,86.24
2018-12-26T01:44:37.974Z,86.55
2018-12-26T01:45:37.954Z,86.87
2018-12-26T01:46:37.964Z,86.55
2018-12-26T01:47:37.932Z,87.18
2018-12-26T01:48:37.919Z,87.18
2018-12-26T01:49:37.907Z,87.08
2018-12-26T01:50:37.896Z,86.14
2018-12-26T01:51:37.909Z,86.28
2018-12-26T01:52:37.874Z,86.24
2018-12-26T01:53:37.866Z,85.65
2018-12-26T01:54:37.852Z,86.07
2018-12-26T01:55:37.841Z,86.49
2018-12-26T01:56:37.852Z,86.24
2018-12-26T01:57:37.818Z,87.08
2018-12-26T01:58:37.808Z,86.77
2018-12-26T01:59:37.800Z,86.77
2018-12-26T02:00:37.787Z,87.23
2018-12-26T02:01:37.800Z,86.77
2018-12-26T02:02:37.764Z,87.18
2018-12-26T02:03:37.759Z,86.24
2018-12-26T02:04:37.741Z,86.38
2018-12-26T02:05:37.731Z,86.98
2018-12-26T02:06:37.745Z,86.87
2018-12-26T02:07:37.709Z,86.60
2018-12-26T02:08:37.698Z,87.33
2018-12-26T02:09:37.687Z,87.43
2018-12-26T02:10:37.679Z,87.43
2018-12-26T02:11:37.693Z,87.33
2018-12-26T02:12:37.680Z,87.50
2018-12-26T02:13:37.643Z,87.18
2018-12-26T02:14:37.635Z,86.87
2018-12-26T02:15:37.621Z,85.93
2018-12-26T02:16:37.643Z,86.45
2018-12-26T02:17:37.600Z,85.93
2018-12-26T02:18:37.715Z,85.93
2018-12-26T02:19:37.578Z,86.20
2018-12-26T02:20:37.570Z,85.89
2018-12-26T02:21:37.556Z,85.47
2018-12-26T02:22:37.571Z,85.05
2018-12-26T02:23:37.536Z,84.74
2018-12-26T02:24:37.526Z,85.30
2018-12-26T02:25:37.512Z,85.09
2018-12-26T02:26:37.512Z,85.72
2018-12-26T02:27:37.515Z,86.35
2018-12-26T02:28:37.483Z,85.82
2018-12-26T02:29:37.468Z,87.29
2018-12-26T02:30:37.457Z,86.35
2018-12-26T02:31:37.460Z,86.24
2018-12-26T02:32:37.461Z,86.35
2018-12-26T02:33:37.426Z,85.86
2018-12-26T02:34:37.414Z,85.97
2018-12-26T02:35:37.404Z,86.18
2018-12-26T02:36:37.397Z,85.65
2018-12-26T02:37:37.413Z,86.14
2018-12-26T02:38:37.370Z,86.28
2018-12-26T02:39:37.358Z,86.07
2018-12-26T02:40:37.353Z,86.38
2018-12-26T02:41:37.338Z,87.23
2018-12-26T02:42:37.354Z,87.43
2018-12-26T02:43:37.317Z,86.70
2018-12-26T02:44:37.303Z,86.07
2018-12-26T02:45:37.296Z,86.49
2018-12-26T02:46:37.283Z,87.12
2018-12-26T02:47:37.298Z,86.60
2018-12-26T02:48:37.262Z,86.45
2018-12-26T02:49:37.252Z,86.38
2018-12-26T02:50:37.239Z,86.60
2018-12-26T02:51:37.226Z,87.33
2018-12-26T02:52:37.240Z,87.12
2018-12-26T02:53:37.211Z,86.55
2018-12-26T02:54:37.194Z,86.91
2018-12-26T02:55:37.183Z,86.60
2018-12-26T02:56:46.187Z,86.18
2018-12-26T02:57:37.198Z,85.75
2018-12-26T02:58:37.152Z,86.38
2018-12-26T02:59:37.141Z,85.86
2018-12-26T03:00:37.133Z,86.18
2018-12-26T03:01:37.119Z,86.28
2018-12-26T03:02:37.109Z,85.97
2018-12-26T03:03:37.126Z,85.86
2018-12-26T03:04:37.102Z,86.18
2018-12-26T03:05:37.072Z,86.24
2018-12-26T03:06:37.067Z,86.14
2018-12-26T03:07:37.051Z,86.18
2018-12-26T03:08:37.064Z,86.28
2018-12-26T03:09:37.030Z,86.28
2018-12-26T03:10:37.018Z,86.18
2018-12-26T03:11:37.009Z,85.93
2018-12-26T03:12:37.004Z,86.07
2018-12-26T03:13:37.008Z,85.93
2018-12-26T03:14:36.975Z,86.07
2018-12-26T03:15:36.962Z,85.86
2018-12-26T03:16:36.953Z,86.28
2018-12-26T03:17:36.941Z,86.18
2018-12-26T03:18:36.953Z,86.38
2018-12-26T03:19:36.937Z,86.80
2018-12-26T03:20:36.910Z,86.80
2018-12-26T03:21:36.897Z,87.12
2018-12-26T03:22:36.887Z,86.60
2018-12-26T03:23:36.915Z,87.33
2018-12-26T03:24:36.866Z,87.01
2018-12-26T03:25:36.858Z,86.49
2018-12-26T03:26:36.846Z,86.18
2018-12-26T03:27:36.833Z,86.80
2018-12-26T03:28:36.825Z,87.64
2018-12-26T03:29:36.833Z,86.91
2018-12-26T03:30:36.806Z,87.12
2018-12-26T03:31:36.797Z,86.60
2018-12-26T03:32:36.781Z,86.60
2018-12-26T03:33:36.766Z,87.23
2018-12-26T03:34:36.779Z,85.97
2018-12-26T03:35:36.743Z,85.97
2018-12-26T03:36:36.733Z,85.86
2018-12-26T03:37:36.726Z,86.18
2018-12-26T03:38:36.714Z,86.07
2018-12-26T03:39:36.724Z,86.38
2018-12-26T03:40:36.690Z,85.86
2018-12-26T03:41:36.679Z,86.18
2018-12-26T03:42:36.670Z,86.80
2018-12-26T03:43:36.672Z,86.95
2018-12-26T03:44:36.676Z,86.95
2018-12-26T03:45:36.634Z,87.33
2018-12-26T03:46:36.624Z,86.49
2018-12-26T03:47:36.615Z,85.55
2018-12-26T03:48:36.607Z,86.07
2018-12-26T03:49:36.630Z,86.28
2018-12-26T03:50:36.581Z,86.28
2018-12-26T03:51:36.570Z,86.18
2018-12-26T03:52:36.559Z,85.65
2018-12-26T03:53:36.547Z,86.38
2018-12-26T03:54:36.562Z,85.65
2018-12-26T03:55:36.535Z,86.70
2018-12-26T03:56:36.519Z,86.07
2018-12-26T03:57:36.527Z,85.86
2018-12-26T03:58:36.493Z,85.24
2018-12-26T03:59:36.519Z,84.96
2018-12-26T04:00:36.471Z,84.92
2018-12-26T04:01:36.461Z,84.50
2018-12-26T04:02:36.454Z,84.85
2018-12-26T04:03:36.441Z,84.96
2018-12-26T04:04:36.427Z,85.34
2018-12-26T04:05:36.439Z,85.48
2018-12-26T04:06:36.404Z,84.75
2018-12-26T04:07:36.394Z,84.79
2018-12-26T04:08:36.384Z,85.06
2018-12-26T04:09:36.377Z,85.27
2018-12-26T04:10:36.389Z,85.21
2018-12-26T04:11:36.349Z,85.10
2018-12-26T04:12:36.345Z,85.10
2018-12-26T04:13:36.331Z,84.96
2018-12-26T04:14:36.322Z,85.10
2018-12-26T04:15:36.329Z,85.42
2018-12-26T04:16:36.299Z,86.15
2018-12-26T04:17:36.289Z,86.36
2018-12-26T04:18:36.274Z,86.46
2018-12-26T04:19:36.265Z,85.94
2018-12-26T04:20:36.276Z,86.25
2018-12-26T04:21:36.241Z,86.57
2018-12-26T04:22:36.232Z,86.43
2018-12-26T04:23:36.219Z,86.11
2018-12-26T04:24:36.208Z,85.80
2018-12-26T04:25:36.220Z,85.27
2018-12-26T04:26:36.185Z,85.63
2018-12-26T04:27:36.176Z,85.52
2018-12-26T04:28:36.166Z,85.90
2018-12-26T04:29:36.153Z,85.52
2018-12-26T04:30:36.184Z,85.83
2018-12-26T04:31:36.132Z,86.36
2018-12-26T04:32:36.124Z,86.68
2018-12-26T04:33:36.112Z,86.36
2018-12-26T04:34:36.103Z,86.15
2018-12-26T04:35:36.108Z,86.36
2018-12-26T04:36:36.103Z,86.15
2018-12-26T04:37:36.067Z,85.83
2018-12-26T04:38:36.056Z,85.63
2018-12-26T04:39:36.046Z,85.21
2018-12-26T04:40:36.036Z,85.10
2018-12-26T04:41:36.045Z,85.10
2018-12-26T04:42:36.013Z,85.31
2018-12-26T04:43:36.002Z,85.00
2018-12-26T04:44:35.990Z,85.73
2018-12-26T04:45:35.978Z,85.00
2018-12-26T04:46:35.989Z,85.10
2018-12-26T04:47:35.957Z,85.21
2018-12-26T04:48:35.948Z,85.63
2018-12-26T04:49:35.943Z,85.42
2018-12-26T04:50:35.932Z,85.00
2018-12-26T04:51:35.951Z,85.42
2018-12-26T04:52:35.906Z,85.73
2018-12-26T04:53:35.892Z,85.35
2018-12-26T04:54:35.888Z,85.42
2018-12-26T04:55:35.871Z,85.46
2018-12-26T04:56:35.885Z,85.21
2018-12-26T04:57:35.849Z,85.14
2018-12-26T04:58:35.835Z,85.35
2018-12-26T04:59:35.828Z,85.77
2018-12-26T05:00:35.849Z,85.14
2018-12-26T05:01:35.826Z,85.03
2018-12-26T05:02:35.798Z,84.89
2018-12-26T05:03:35.790Z,84.79
2018-12-26T05:04:35.769Z,85.52
2018-12-26T05:05:35.759Z,85.73
2018-12-26T05:06:35.899Z,85.42
2018-12-26T05:07:35.741Z,85.52
2018-12-26T05:08:35.726Z,85.66
2018-12-26T05:09:35.715Z,85.88
2018-12-26T05:10:35.704Z,86.40
2018-12-26T05:11:35.694Z,86.15
2018-12-26T05:12:35.710Z,85.98
2018-12-26T05:13:35.708Z,85.88
2018-12-26T05:14:35.664Z,86.29
2018-12-26T05:15:35.651Z,86.51
2018-12-26T05:16:35.639Z,86.40
2018-12-26T05:17:35.654Z,86.51
2018-12-26T05:18:35.619Z,85.98
2018-12-26T05:19:35.606Z,86.71
2018-12-26T05:20:35.748Z,86.46
2018-12-26T05:21:35.584Z,85.94
2018-12-26T05:22:35.596Z,85.42
2018-12-26T05:23:35.563Z,85.98
2018-12-26T05:24:35.554Z,86.40
2018-12-26T05:25:35.542Z,86.46
2018-12-26T05:26:35.533Z,86.05
2018-12-26T05:27:35.540Z,86.25
2018-12-26T05:28:35.512Z,85.21
2018-12-26T05:29:35.503Z,85.31
2018-12-26T05:30:35.527Z,85.42
2018-12-26T05:31:35.477Z,85.56
2018-12-26T05:32:35.489Z,85.42
2018-12-26T05:33:35.452Z,85.35
2018-12-26T05:34:35.443Z,85.10
2018-12-26T05:35:35.431Z,85.25
2018-12-26T05:36:35.419Z,85.00
2018-12-26T05:37:35.432Z,85.00
2018-12-26T05:38:35.399Z,85.10
2018-12-26T05:39:35.386Z,84.89
2018-12-26T05:40:35.376Z,85.10
2018-12-26T05:41:35.367Z,84.89
2018-12-26T05:42:35.380Z,84.89
2018-12-26T05:43:35.342Z,85.31
2018-12-26T05:44:35.332Z,84.58
2018-12-26T05:45:35.323Z,85.00
2018-12-26T05:46:35.310Z,84.79
2018-12-26T05:47:35.321Z,85.00
2018-12-26T05:48:35.290Z,85.66
2018-12-26T05:49:35.277Z,85.63
2018-12-26T05:50:35.267Z,85.00
2018-12-26T05:51:35.256Z,85.10
2018-12-26T05:52:35.439Z,85.31
2018-12-26T05:53:35.233Z,85.31
2018-12-26T05:54:35.226Z,84.68
2018-12-26T05:55:36.465Z,84.79
2018-12-26T05:56:35.200Z,84.72
2018-12-26T05:57:42.564Z,85.10
2018-12-26T05:58:35.210Z,85.00
2018-12-26T05:59:35.168Z,85.31
2018-12-26T06:00:35.158Z,85.46
2018-12-26T06:01:35.145Z,85.31
2018-12-26T06:02:35.135Z,85.14
2018-12-26T06:03:35.190Z,85.31
2018-12-26T06:04:35.113Z,86.15
2018-12-26T06:05:35.179Z,85.63
2018-12-26T06:06:35.091Z,86.08
2018-12-26T06:07:35.081Z,86.25
2018-12-26T06:08:35.093Z,85.46
2018-12-26T06:09:35.059Z,85.10
2018-12-26T06:10:35.050Z,84.93
2018-12-26T06:11:35.041Z,85.31
2018-12-26T06:12:35.027Z,84.93
2018-12-26T06:13:35.043Z,85.03
2018-12-26T06:14:35.007Z,85.14
2018-12-26T06:15:34.993Z,85.31
2018-12-26T06:16:34.987Z,85.52
2018-12-26T06:17:34.971Z,85.21
2018-12-26T06:18:34.985Z,84.68
2018-12-26T06:19:34.950Z,84.79
2018-12-26T06:20:34.937Z,85.00
2018-12-26T06:21:34.927Z,84.79
2018-12-26T06:22:34.916Z,85.14
2018-12-26T06:23:34.943Z,85.88
2018-12-26T06:24:34.897Z,85.98
2018-12-26T06:25:34.929Z,85.35
2018-12-26T06:26:34.874Z,85.66
2018-12-26T06:27:34.862Z,85.66
2018-12-26T06:28:34.851Z,85.66
2018-12-26T06:29:34.864Z,85.77
2018-12-26T06:30:34.828Z,85.77
2018-12-26T06:31:34.819Z,85.46
2018-12-26T06:32:34.808Z,85.98
2018-12-26T06:33:34.796Z,85.98
2018-12-26T06:34:34.813Z,85.56
2018-12-26T06:35:34.780Z,85.98
2018-12-26T06:36:34.763Z,86.02
2018-12-26T06:37:34.752Z,86.08
2018-12-26T06:38:34.762Z,85.88
2018-12-26T06:39:34.755Z,86.40
2018-12-26T06:40:34.722Z,85.98
2018-12-26T06:41:34.708Z,86.44
2018-12-26T06:42:34.728Z,86.08
2018-12-26T06:43:34.686Z,85.56
2018-12-26T06:44:34.709Z,85.77
2018-12-26T06:45:34.668Z,85.52
2018-12-26T06:46:34.657Z,85.83
2018-12-26T06:47:34.643Z,85.21
2018-12-26T06:48:34.633Z,85.03
2018-12-26T06:49:34.644Z,85.00
2018-12-26T06:50:34.610Z,85.10
2018-12-26T06:51:34.603Z,85.21
2018-12-26T06:52:34.594Z,84.89
2018-12-26T06:53:34.580Z,85.10
2018-12-26T06:54:34.596Z,85.00
2018-12-26T06:55:34.558Z,85.21
2018-12-26T06:56:34.545Z,85.35
2018-12-26T06:57:34.533Z,85.42
2018-12-26T06:58:34.524Z,85.42
2018-12-26T06:59:34.616Z,85.46
2018-12-26T07:00:34.611Z,84.83
2018-12-26T07:01:34.489Z,84.72
2018-12-26T07:02:34.479Z,85.46
2018-12-26T07:03:34.472Z,85.46
2018-12-26T07:04:34.457Z,84.72
2018-12-26T07:05:34.478Z,85.31
2018-12-26T07:06:34.438Z,84.79
2018-12-26T07:07:34.424Z,85.25
2018-12-26T07:08:34.414Z,85.66
2018-12-26T07:09:34.403Z,86.36
2018-12-26T07:10:34.417Z,86.19
2018-12-26T07:11:34.381Z,85.52
2018-12-26T07:12:34.370Z,85.46
2018-12-26T07:13:34.359Z,84.93
2018-12-26T07:14:34.348Z,85.42
2018-12-26T07:15:34.376Z,85.42
2018-12-26T07:16:34.326Z,85.21
2018-12-26T07:17:34.319Z,85.31
2018-12-26T07:18:34.306Z,85.63
2018-12-26T07:19:34.295Z,85.52
2018-12-26T07:20:34.332Z,85.52
2018-12-26T07:21:34.275Z,85.83
2018-12-26T07:22:34.263Z,85.94
2018-12-26T07:23:34.250Z,86.05
2018-12-26T07:24:34.245Z,85.42
2018-12-26T07:25:34.252Z,84.79
2018-12-26T07:26:34.218Z,85.10
2018-12-26T07:27:34.220Z,85.42
2018-12-26T07:28:34.194Z,86.15
2018-12-26T07:29:34.187Z,86.15
2018-12-26T07:30:34.198Z,85.94
2018-12-26T07:31:34.162Z,85.42
2018-12-26T07:32:34.151Z,85.42
2018-12-26T07:33:34.140Z,85.10
2018-12-26T07:34:41.985Z,85.42
2018-12-26T07:35:34.164Z,85.42
2018-12-26T07:36:34.208Z,84.64
2018-12-26T07:37:34.097Z,85.48
2018-12-26T07:38:43.789Z,85.27
2018-12-26T07:39:34.075Z,85.17
2018-12-26T07:40:34.098Z,85.06
2018-12-26T07:41:34.057Z,85.48
2018-12-26T07:42:34.055Z,86.11
2018-12-26T07:43:34.032Z,86.22
2018-12-26T07:44:34.025Z,85.86
2018-12-26T07:45:34.008Z,85.13
2018-12-26T07:46:34.026Z,84.92
2018-12-26T07:47:33.986Z,85.38
2018-12-26T07:48:33.977Z,84.64
2018-12-26T07:49:33.965Z,85.02
2018-12-26T07:50:33.955Z,85.59
2018-12-26T07:51:33.981Z,85.90
2018-12-26T07:52:33.936Z,85.75
2018-12-26T07:53:33.923Z,85.75
2018-12-26T07:54:33.914Z,86.11
2018-12-26T07:55:33.905Z,86.07
2018-12-26T07:56:33.913Z,86.07
2018-12-26T07:57:44.502Z,86.38
2018-12-26T07:58:33.869Z,86.32
2018-12-26T07:59:37.681Z,86.28
2018-12-26T08:00:33.844Z,86.11
2018-12-26T08:01:33.856Z,86.28
2018-12-26T08:02:33.825Z,85.86
2018-12-26T08:03:33.814Z,86.38
2018-12-26T08:04:33.828Z,86.18
2018-12-26T08:05:33.794Z,84.92
2018-12-26T08:06:33.818Z,85.44
2018-12-26T08:07:33.767Z,85.30
2018-12-26T08:08:33.757Z,85.44
2018-12-26T08:09:33.746Z,85.75
2018-12-26T08:10:33.735Z,86.18
2018-12-26T08:11:33.724Z,85.72
2018-12-26T08:12:33.735Z,85.61
2018-12-26T08:13:33.704Z,85.75
2018-12-26T08:14:33.691Z,85.97
2018-12-26T08:15:43.792Z,86.28
2018-12-26T08:16:33.669Z,86.28
2018-12-26T08:17:33.680Z,85.97
2018-12-26T08:18:33.782Z,86.18
2018-12-26T08:19:33.643Z,86.18
2018-12-26T08:20:33.626Z,85.75
2018-12-26T08:21:33.616Z,86.04
2018-12-26T08:22:33.698Z,85.86
2018-12-26T08:23:33.592Z,86.04
2018-12-26T08:24:33.611Z,86.04
2018-12-26T08:25:33.602Z,85.61
2018-12-26T08:26:33.561Z,86.35
2018-12-26T08:27:33.574Z,86.24
2018-12-26T08:28:41.899Z,85.51
2018-12-26T08:29:33.529Z,85.41
2018-12-26T08:30:33.517Z,85.78
2018-12-26T08:31:42.069Z,85.41
2018-12-26T08:32:33.533Z,85.26
2018-12-26T08:33:33.483Z,85.58
2018-12-26T08:34:33.472Z,85.58
2018-12-26T08:35:33.461Z,85.05
2018-12-26T08:36:42.121Z,84.95
2018-12-26T08:37:33.467Z,84.95
2018-12-26T08:38:33.476Z,84.91
2018-12-26T08:39:33.418Z,85.33
2018-12-26T08:40:33.435Z,84.91
2018-12-26T08:41:33.414Z,84.87
2018-12-26T08:42:33.408Z,83.72
2018-12-26T08:43:33.378Z,83.51
2018-12-26T08:44:33.367Z,82.89
2018-12-26T08:45:33.384Z,83.51
2018-12-26T08:46:33.355Z,83.93
2018-12-26T08:47:33.354Z,84.87
2018-12-26T08:48:33.324Z,83.89
2018-12-26T08:49:33.308Z,83.62
2018-12-26T08:50:33.347Z,84.87
2018-12-26T08:51:33.285Z,84.83
2018-12-26T08:52:33.390Z,84.10
2018-12-26T08:53:42.263Z,83.58
2018-12-26T08:54:33.255Z,83.06
2018-12-26T08:55:33.242Z,83.06
2018-12-26T08:56:33.232Z,83.51
2018-12-26T08:57:33.234Z,83.89
2018-12-26T08:58:35.289Z,83.58
2018-12-26T08:59:33.440Z,83.23
2018-12-26T09:00:33.455Z,83.58
2018-12-26T09:01:33.194Z,83.01
2018-12-26T09:02:33.184Z,82.70
2018-12-26T09:03:33.179Z,83.01
2018-12-26T09:04:33.152Z,83.44
2018-12-26T09:05:33.529Z,83.12
2018-12-26T09:06:33.125Z,83.61
2018-12-26T09:07:33.229Z,83.08
2018-12-26T09:08:33.125Z,83.40
2018-12-26T09:09:33.091Z,83.29
2018-12-26T09:10:33.081Z,83.15
2018-12-26T09:11:33.067Z,82.84
2018-12-26T09:12:33.056Z,82.42
2018-12-26T09:13:33.067Z,81.96
2018-12-26T09:14:33.034Z,80.40
2018-12-26T09:15:33.023Z,80.40
2018-12-26T09:16:33.020Z,81.55
2018-12-26T09:17:33.003Z,80.54
2018-12-26T09:18:33.016Z,81.55
2018-12-26T09:19:32.982Z,82.31
2018-12-26T09:20:32.968Z,81.96
2018-12-26T09:21:32.958Z,80.75
2018-12-26T09:22:32.949Z,80.44
2018-12-26T09:23:32.962Z,81.27
2018-12-26T09:24:44.376Z,81.55
2018-12-26T09:25:32.916Z,82.28
2018-12-26T09:26:32.903Z,82.70
2018-12-26T09:27:32.890Z,83.11
2018-12-26T09:28:32.904Z,82.07
2018-12-26T09:29:32.944Z,81.23
2018-12-26T09:30:33.064Z,81.02
2018-12-26T09:31:32.943Z,81.51
2018-12-26T09:32:32.838Z,81.30
2018-12-26T09:33:32.874Z,81.09
2018-12-26T09:34:32.814Z,80.36
2018-12-26T09:35:32.814Z,80.36
2018-12-26T09:36:32.803Z,80.33
2018-12-26T09:37:32.814Z,80.85
2018-12-26T09:38:32.773Z,81.16
2018-12-26T09:39:32.783Z,80.43
2018-12-26T09:40:32.908Z,80.29
2018-12-26T09:41:32.738Z,79.87
2018-12-26T09:42:32.802Z,79.66
2018-12-26T09:43:32.753Z,79.56
2018-12-26T09:44:32.779Z,79.11
2018-12-26T09:45:32.965Z,79.49
2018-12-26T09:46:32.681Z,78.20
2018-12-26T09:47:32.677Z,77.16
2018-12-26T09:48:41.697Z,78.20
2018-12-26T09:49:32.690Z,77.34
2018-12-26T09:50:32.638Z,76.16
2018-12-26T09:52:26.566Z,76.23
2018-12-26T09:53:26.552Z,75.64
2018-12-26T09:54:26.563Z,75.29
2018-12-26T09:55:26.535Z,74.91
2018-12-26T09:56:26.527Z,74.49
2018-12-26T09:57:26.812Z,75.09
2018-12-26T09:58:26.499Z,75.71
2018-12-26T09:59:26.542Z,75.43
2018-12-26T10:00:26.556Z,72.11
2018-12-26T10:01:26.496Z,73.57
2018-12-26T10:02:26.449Z,73.88
2018-12-26T10:03:35.443Z,73.94
2018-12-26T10:04:26.452Z,72.77
2018-12-26T10:05:26.421Z,71.77
2018-12-26T10:06:26.531Z,72.08
2018-12-26T10:07:26.395Z,69.35
2018-12-26T10:08:26.384Z,68.49
2018-12-26T10:09:26.425Z,69.50
2018-12-26T10:10:26.406Z,69.26
2018-12-26T10:11:26.351Z,69.26
2018-12-26T10:12:26.338Z,67.61
2018-12-26T10:13:26.327Z,67.91
2018-12-26T10:14:26.317Z,66.54
2018-12-26T10:15:26.329Z,65.33
2018-12-26T10:16:26.300Z,67.30
2018-12-26T10:17:26.283Z,66.44
2018-12-26T10:18:26.271Z,67.16
2018-12-26T10:19:26.261Z,67.88
2018-12-26T10:20:26.307Z,66.13
2018-12-26T10:21:26.240Z,65.72
2018-12-26T10:22:26.226Z,66.54
2018-12-26T10:23:26.218Z,65.72
2018-12-26T10:24:26.298Z,65.30
2018-12-26T10:25:26.259Z,65.20
2018-12-26T10:26:26.186Z,66.33
2018-12-26T10:27:26.289Z,66.47
2018-12-26T10:28:26.167Z,66.88
2018-12-26T10:29:26.160Z,67.91
2018-12-26T10:30:26.202Z,67.95
2018-12-26T10:31:26.135Z,68.70
2018-12-26T10:32:26.120Z,67.88
2018-12-26T10:33:26.116Z,68.49
2018-12-26T10:34:26.093Z,68.29
2018-12-26T10:35:26.106Z,68.57
2018-12-26T10:36:26.070Z,67.64
2018-12-26T10:37:26.060Z,67.33
2018-12-26T10:38:26.048Z,66.99
2018-12-26T10:39:26.042Z,67.61
2018-12-26T10:40:26.056Z,68.12
2018-12-26T10:41:26.021Z,66.16
2018-12-26T10:42:26.004Z,66.23
2018-12-26T10:43:25.993Z,64.76
2018-12-26T10:44:25.982Z,64.86
2018-12-26T10:45:26.017Z,65.34
2018-12-26T10:46:25.961Z,64.83
2018-12-26T10:47:25.951Z,63.77
2018-12-26T10:48:25.938Z,64.03
2018-12-26T10:49:25.927Z,65.30
2018-12-26T10:50:25.962Z,65.95
2018-12-26T10:51:25.973Z,66.67
2018-12-26T10:52:25.892Z,65.78
2018-12-26T10:53:25.881Z,67.77
2018-12-26T10:54:25.872Z,68.32
2018-12-26T10:55:25.862Z,68.66
2018-12-26T10:56:25.873Z,68.59
2018-12-26T10:57:25.843Z,69.87
2018-12-26T10:58:25.831Z,71.22
2018-12-26T10:59:25.820Z,70.73
2018-12-26T11:00:25.853Z,72.11
2018-12-26T11:01:25.816Z,72.42
2018-12-26T11:02:25.787Z,73.28
2018-12-26T11:03:25.773Z,72.90
2018-12-26T11:04:25.763Z,74.57
2018-12-26T11:05:29.600Z,74.05
2018-12-26T11:06:25.759Z,75.71
2018-12-26T11:07:25.735Z,75.32
2018-12-26T11:08:25.716Z,75.32
2018-12-26T11:09:25.705Z,75.01
2018-12-26T11:10:25.692Z,76.29
2018-12-26T11:11:25.704Z,76.29
2018-12-26T11:12:25.670Z,77.03
2018-12-26T11:13:25.662Z,77.37
2018-12-26T11:14:25.650Z,77.03
2018-12-26T11:15:25.636Z,77.75
2018-12-26T11:16:25.658Z,77.86
2018-12-26T11:17:25.615Z,78.69
2018-12-26T11:18:25.603Z,77.23
2018-12-26T11:19:25.590Z,77.13
2018-12-26T11:20:25.580Z,77.75
2018-12-26T11:21:25.604Z,78.03
2018-12-26T11:22:25.559Z,77.58
2018-12-26T11:23:25.567Z,77.26
2018-12-26T11:24:25.536Z,76.64
2018-12-26T11:25:25.525Z,76.33
2018-12-26T11:26:25.539Z,76.33
2018-12-26T11:27:25.503Z,76.29
2018-12-26T11:28:25.492Z,75.57
2018-12-26T11:29:25.481Z,75.05
2018-12-26T11:30:25.471Z,75.02
2018-12-26T11:31:25.482Z,75.12
2018-12-26T11:32:25.447Z,74.57
2018-12-26T11:33:25.439Z,74.15
2018-12-26T11:34:25.427Z,72.88
2018-12-26T11:35:25.418Z,72.01
2018-12-26T11:36:25.440Z,72.60
2018-12-26T11:37:34.831Z,71.15
2018-12-26T11:38:25.380Z,71.73
2018-12-26T11:39:25.369Z,70.87
2018-12-26T11:40:25.360Z,69.92
2018-12-26T11:41:25.349Z,70.40
2018-12-26T11:42:25.416Z,69.37
2018-12-26T11:43:25.331Z,67.78
2018-12-26T11:44:25.368Z,67.65
2018-12-26T11:45:25.356Z,66.76
2018-12-26T11:46:25.293Z,65.49
2018-12-26T11:47:25.303Z,63.99
2018-12-26T11:48:34.634Z,63.69
2018-12-26T11:49:34.719Z,62.48
2018-12-26T11:50:25.247Z,59.08
2018-12-26T11:51:25.236Z,58.36
2018-12-26T11:52:25.249Z,56.51
2018-12-26T11:53:25.213Z,56.62
2018-12-26T11:54:25.205Z,56.49
2018-12-26T11:55:25.193Z,56.13
2018-12-26T11:56:25.237Z,55.18
2018-12-26T11:57:25.347Z,55.74
2018-12-26T11:58:25.175Z,53.64
2018-12-26T11:59:27.384Z,52.58
2018-12-26T12:00:25.136Z,51.48
2018-12-26T12:01:33.450Z,50.76
2018-12-26T12:02:27.639Z,52.04
2018-12-26T12:03:35.826Z,51.02
2018-12-26T12:04:25.092Z,51.61
2018-12-26T12:05:25.087Z,50.20
2018-12-26T12:06:25.071Z,50.96
2018-12-26T12:07:25.057Z,51.12
2018-12-26T12:08:25.069Z,52.59
2018-12-26T12:10:18.713Z,53.59
2018-12-26T12:11:18.694Z,55.56
2018-12-26T12:12:18.688Z,57.00
2018-12-26T12:13:28.537Z,55.23
2018-12-26T12:14:18.660Z,56.90
2018-12-26T12:15:18.650Z,56.20
2018-12-26T12:16:18.650Z,58.39
2018-12-26T12:17:18.629Z,58.21
2018-12-26T12:18:18.644Z,59.16
2018-12-26T12:19:18.608Z,58.75
2018-12-26T12:20:18.593Z,59.98
2018-12-26T12:21:18.585Z,59.50
2018-12-26T12:22:18.574Z,60.03
2018-12-26T12:23:18.682Z,60.35
2018-12-26T12:24:18.558Z,61.27
2018-12-26T12:25:18.692Z,61.58
2018-12-26T12:26:18.529Z,60.86
2018-12-26T12:27:18.516Z,61.53
2018-12-26T12:28:18.512Z,62.87
2018-12-26T12:29:18.583Z,62.90
2018-12-26T12:30:26.948Z,62.59
2018-12-26T12:31:19.392Z,62.49
2018-12-26T12:32:18.543Z,62.79
2018-12-26T12:33:18.451Z,63.62
2018-12-26T12:35:29.664Z,62.31
2018-12-26T12:36:29.691Z,63.06
2018-12-26T12:37:29.621Z,63.78
2018-12-26T12:38:29.657Z,63.47
2018-12-26T12:39:29.641Z,64.74
2018-12-26T12:40:29.617Z,65.15
2018-12-26T12:41:29.624Z,65.05
2018-12-26T12:42:30.486Z,64.77
2018-12-26T12:43:29.578Z,65.91
2018-12-26T12:44:29.565Z,66.31
2018-12-26T12:45:29.530Z,66.21
2018-12-26T12:46:29.517Z,67.03
2018-12-26T12:47:29.506Z,66.45
2018-12-26T12:48:29.716Z,66.24
2018-12-26T12:49:29.510Z,66.04
2018-12-26T12:50:29.477Z,65.52
2018-12-26T12:51:29.466Z,66.14
2018-12-26T12:52:29.453Z,66.45
2018-12-26T12:53:29.461Z,67.07
2018-12-26T12:54:38.480Z,67.48
2018-12-26T12:55:29.429Z,66.66